createdAt,value
2022-10-09T00:00:27.877Z,4.9
2022-10-09T00:01:43.998Z,4.9
2022-10-09T00:03:01.103Z,4.9
2022-10-09T00:04:18.208Z,5
2022-10-09T00:05:35.310Z,4.9
2022-10-09T00:06:52.416Z,4.9
2022-10-09T00:08:09.520Z,4.9
2022-10-09T00:09:25.641Z,5
2022-10-09T00:10:42.746Z,5
2022-10-09T00:11:59.851Z,5
2022-10-09T00:13:16.956Z,4.9
2022-10-09T00:14:34.061Z,5
2022-10-09T00:15:51.166Z,4.9
2022-10-09T00:17:08.271Z,4.9
2022-10-09T00:18:25.376Z,5
2022-10-09T00:19:42.481Z,4.9
2022-10-09T00:20:59.586Z,4.9
2022-10-09T00:22:16.690Z,4.8
2022-10-09T00:23:33.795Z,4.8
2022-10-09T00:24:50.900Z,4.8
2022-10-09T00:26:07.021Z,4.8
2022-10-09T00:27:24.126Z,4.8
2022-10-09T00:28:41.231Z,4.8
2022-10-09T00:29:58.336Z,4.7
2022-10-09T00:31:15.441Z,4.8
2022-10-09T00:32:32.546Z,4.7
2022-10-09T00:33:49.651Z,4.7
2022-10-09T00:35:06.755Z,4.8
2022-10-09T00:36:23.860Z,4.6
2022-10-09T00:37:40.965Z,4.6
2022-10-09T00:38:58.070Z,4.6
2022-10-09T00:40:15.175Z,4.6
2022-10-09T00:41:32.280Z,4.6
2022-10-09T00:42:48.401Z,4.7
2022-10-09T00:44:05.506Z,4.7
2022-10-09T00:45:22.611Z,4.7
2022-10-09T00:46:39.715Z,4.7
2022-10-09T00:47:56.820Z,4.7
2022-10-09T00:49:13.925Z,4.6
2022-10-09T00:50:31.030Z,4.6
2022-10-09T00:51:48.136Z,4.6
2022-10-09T00:53:05.241Z,4.6
2022-10-09T00:54:22.346Z,4.6
2022-10-09T00:55:39.451Z,4.5
2022-10-09T00:56:56.556Z,4.4
2022-10-09T00:58:13.660Z,4.4
2022-10-09T00:59:29.781Z,4.4
2022-10-09T01:00:46.886Z,4.5
2022-10-09T01:02:03.992Z,4.4
2022-10-09T01:03:21.098Z,4.4
2022-10-09T01:04:38.203Z,4.5
2022-10-09T01:05:55.308Z,4.5
2022-10-09T01:07:12.412Z,4.5
2022-10-09T01:08:29.517Z,4.5
2022-10-09T01:09:46.622Z,4.5
2022-10-09T01:11:03.727Z,4.5
2022-10-09T01:12:20.832Z,4.5
2022-10-09T01:13:37.938Z,4.4
2022-10-09T01:14:55.043Z,4.4
2022-10-09T01:16:11.164Z,4.5
2022-10-09T01:17:28.269Z,4.4
2022-10-09T01:18:45.374Z,4.4
2022-10-09T01:20:02.479Z,4.3
2022-10-09T01:21:19.584Z,4.3
2022-10-09T01:22:36.689Z,4.2
2022-10-09T01:23:53.794Z,4.1
2022-10-09T01:25:10.899Z,4.2
2022-10-09T01:26:28.004Z,4.2
2022-10-09T01:27:45.109Z,4.2
2022-10-09T01:29:02.214Z,4.1
2022-10-09T01:30:19.319Z,4.2
2022-10-09T01:31:36.424Z,4.2
2022-10-09T01:32:52.545Z,4.2
2022-10-09T01:34:09.650Z,4.1
2022-10-09T01:35:26.755Z,4.1
2022-10-09T01:36:43.861Z,4
2022-10-09T01:38:00.966Z,4.1
2022-10-09T01:39:18.070Z,4
2022-10-09T01:40:35.176Z,4
2022-10-09T01:41:52.281Z,4.1
2022-10-09T01:43:09.386Z,4.1
2022-10-09T01:44:26.491Z,4.1
2022-10-09T01:45:43.596Z,4.1
2022-10-09T01:47:00.701Z,4.1
2022-10-09T01:48:17.806Z,4.1
2022-10-09T01:49:33.928Z,4
2022-10-09T01:50:51.033Z,4
2022-10-09T01:52:08.138Z,4
2022-10-09T01:53:25.243Z,3.9
2022-10-09T01:54:42.348Z,3.9
2022-10-09T01:55:59.453Z,3.9
2022-10-09T01:57:16.558Z,3.9
2022-10-09T01:58:33.663Z,3.9
2022-10-09T01:59:50.769Z,3.9
2022-10-09T02:01:07.874Z,3.9
2022-10-09T02:02:24.979Z,3.9
2022-10-09T02:03:42.084Z,3.8
2022-10-09T02:04:59.189Z,3.8
2022-10-09T02:06:15.310Z,3.8
2022-10-09T02:07:32.415Z,3.9
2022-10-09T02:08:49.520Z,3.8
2022-10-09T02:10:06.626Z,3.9
2022-10-09T02:11:23.731Z,3.9
2022-10-09T02:12:40.836Z,3.9
2022-10-09T02:13:57.941Z,3.8
2022-10-09T02:15:15.046Z,3.8
2022-10-09T02:16:32.151Z,3.8
2022-10-09T02:17:49.257Z,3.7
2022-10-09T02:19:06.362Z,3.6
2022-10-09T02:20:23.467Z,3.6
2022-10-09T02:21:40.572Z,3.6
2022-10-09T02:22:56.694Z,3.7
2022-10-09T02:24:13.799Z,3.7
2022-10-09T02:25:30.904Z,3.7
2022-10-09T02:26:48.009Z,3.7
2022-10-09T02:28:05.114Z,3.6
2022-10-09T02:29:22.219Z,3.6
2022-10-09T02:30:39.324Z,3.6
2022-10-09T02:31:56.430Z,3.6
2022-10-09T02:33:13.535Z,3.6
2022-10-09T02:34:30.640Z,3.6
2022-10-09T02:35:47.745Z,3.5
2022-10-09T02:37:04.850Z,3.6
2022-10-09T02:38:21.955Z,3.6
2022-10-09T02:39:38.077Z,3.7
2022-10-09T02:40:55.182Z,3.7
2022-10-09T02:42:12.287Z,3.7
2022-10-09T02:43:29.392Z,3.7
2022-10-09T02:44:46.498Z,3.7
2022-10-09T02:46:03.603Z,3.7
2022-10-09T02:47:20.708Z,3.7
2022-10-09T02:48:37.813Z,3.7
2022-10-09T02:49:54.918Z,3.7
2022-10-09T02:51:12.023Z,3.7
2022-10-09T02:52:29.128Z,3.7
2022-10-09T02:53:46.234Z,3.7
2022-10-09T02:55:03.340Z,3.7
2022-10-09T02:56:19.461Z,3.7
2022-10-09T02:57:36.566Z,3.6
2022-10-09T02:58:53.671Z,3.6
2022-10-09T03:00:10.777Z,3.5
2022-10-09T03:01:27.882Z,3.5
2022-10-09T03:02:44.987Z,3.5
2022-10-09T03:04:02.092Z,3.5
2022-10-09T03:05:19.198Z,3.4
2022-10-09T03:06:36.303Z,3.4
2022-10-09T03:07:53.408Z,3.4
2022-10-09T03:09:10.513Z,3.3
2022-10-09T03:10:27.618Z,3.2
2022-10-09T03:11:44.723Z,3.2
2022-10-09T03:13:00.844Z,3.2
2022-10-09T03:14:17.949Z,3.2
2022-10-09T03:15:35.054Z,3.2
2022-10-09T03:16:52.160Z,3.2
2022-10-09T03:18:09.265Z,3.1
2022-10-09T03:19:26.370Z,3.1
2022-10-09T03:20:43.475Z,3.1
2022-10-09T03:22:00.580Z,3.1
2022-10-09T03:23:17.685Z,3.1
2022-10-09T03:24:34.790Z,3.2
2022-10-09T03:25:51.895Z,3.1
2022-10-09T03:27:09.001Z,3.1
2022-10-09T03:28:26.106Z,3.1
2022-10-09T03:29:42.227Z,3.1
2022-10-09T03:30:59.332Z,3.1
2022-10-09T03:32:16.437Z,3.1
2022-10-09T03:33:33.542Z,3
2022-10-09T03:34:50.647Z,3
2022-10-09T03:36:07.752Z,3
2022-10-09T03:37:24.857Z,3
2022-10-09T03:38:41.962Z,2.9
2022-10-09T03:39:59.067Z,2.9
2022-10-09T03:41:16.172Z,3
2022-10-09T03:42:33.277Z,3
2022-10-09T03:43:50.382Z,3
2022-10-09T03:45:07.487Z,3
2022-10-09T03:46:23.608Z,3
2022-10-09T03:47:40.713Z,3
2022-10-09T03:48:57.818Z,3
2022-10-09T03:50:14.924Z,3
2022-10-09T03:51:32.029Z,3.1
2022-10-09T03:52:49.134Z,3
2022-10-09T03:54:06.239Z,3
2022-10-09T03:55:23.344Z,2.9
2022-10-09T03:56:40.449Z,2.9
2022-10-09T03:57:57.554Z,2.9
2022-10-09T03:59:14.659Z,2.9
2022-10-09T04:00:31.764Z,2.9
2022-10-09T04:01:48.869Z,2.9
2022-10-09T04:03:04.991Z,2.9
2022-10-09T04:04:22.097Z,2.9
2022-10-09T04:05:39.202Z,2.9
2022-10-09T04:06:56.307Z,2.9
2022-10-09T04:08:13.412Z,2.9
2022-10-09T04:09:30.517Z,2.9
2022-10-09T04:10:47.622Z,3
2022-10-09T04:12:04.727Z,3
2022-10-09T04:13:21.832Z,3
2022-10-09T04:14:38.937Z,2.9
2022-10-09T04:15:56.042Z,3
2022-10-09T04:17:13.147Z,3
2022-10-09T04:18:30.252Z,2.9
2022-10-09T04:19:46.373Z,2.9
2022-10-09T04:21:03.476Z,2.9
2022-10-09T04:22:20.581Z,2.9
2022-10-09T04:23:37.686Z,3
2022-10-09T04:24:54.791Z,3
2022-10-09T04:26:11.896Z,3
2022-10-09T04:27:28.017Z,2.9
2022-10-09T04:28:45.122Z,2.9
2022-10-09T04:30:02.227Z,2.9
2022-10-09T04:31:19.332Z,2.9
2022-10-09T04:32:36.437Z,2.9
2022-10-09T04:33:53.542Z,2.9
2022-10-09T04:35:10.648Z,2.8
2022-10-09T04:36:27.753Z,2.8
2022-10-09T04:37:44.858Z,2.7
2022-10-09T04:39:01.963Z,2.7
2022-10-09T04:40:19.068Z,2.7
2022-10-09T04:41:36.173Z,2.7
2022-10-09T04:42:53.278Z,2.7
2022-10-09T04:44:09.399Z,2.8
2022-10-09T04:45:26.504Z,2.8
2022-10-09T04:46:43.609Z,2.8
2022-10-09T04:48:00.714Z,2.9
2022-10-09T04:49:17.819Z,2.8
2022-10-09T04:50:34.925Z,2.7
2022-10-09T04:51:52.030Z,2.7
2022-10-09T04:53:09.135Z,2.7
2022-10-09T04:54:26.240Z,2.7
2022-10-09T04:55:43.345Z,2.7
2022-10-09T04:57:00.450Z,2.9
2022-10-09T04:58:17.555Z,3
2022-10-09T04:59:34.660Z,3
2022-10-09T05:00:50.781Z,3.1
2022-10-09T05:02:07.886Z,3.1
2022-10-09T05:03:24.992Z,3.1
2022-10-09T05:04:42.097Z,3.1
2022-10-09T05:05:59.202Z,3.1
2022-10-09T05:07:16.307Z,3.1
2022-10-09T05:08:33.412Z,3.2
2022-10-09T05:09:50.517Z,3.2
2022-10-09T05:11:07.622Z,3.2
2022-10-09T05:12:24.727Z,3.1
2022-10-09T05:13:41.832Z,3.1
2022-10-09T05:14:58.937Z,3.2
2022-10-09T05:16:16.042Z,3.1
2022-10-09T05:17:32.163Z,3.1
2022-10-09T05:18:49.268Z,3
2022-10-09T05:20:06.373Z,3
2022-10-09T05:21:23.479Z,3
2022-10-09T05:22:40.584Z,3.1
2022-10-09T05:23:57.689Z,3.1
2022-10-09T05:25:14.793Z,3.1
2022-10-09T05:26:31.898Z,3.1
2022-10-09T05:27:49.003Z,3.1
2022-10-09T05:29:06.108Z,3.1
2022-10-09T05:30:23.214Z,3.1
2022-10-09T05:31:40.319Z,3.2
2022-10-09T05:32:57.423Z,3.2
2022-10-09T05:34:13.544Z,3.2
2022-10-09T05:35:30.649Z,3.3
2022-10-09T05:36:47.754Z,3.3
2022-10-09T05:38:04.859Z,3.4
2022-10-09T05:39:21.964Z,3.4
2022-10-09T05:40:39.069Z,3.4
2022-10-09T05:41:56.174Z,3.4
2022-10-09T05:43:13.280Z,3.4
2022-10-09T05:44:30.385Z,3.5
2022-10-09T05:45:47.490Z,3.5
2022-10-09T05:47:04.595Z,3.6
2022-10-09T05:48:21.700Z,3.5
2022-10-09T05:49:38.805Z,3.5
2022-10-09T05:50:54.926Z,3.5
2022-10-09T05:52:12.031Z,3.4
2022-10-09T05:53:29.136Z,3.5
2022-10-09T05:54:46.241Z,3.5
2022-10-09T05:56:03.346Z,3.5
2022-10-09T05:57:20.451Z,3.5
2022-10-09T05:58:37.556Z,3.6
2022-10-09T05:59:54.661Z,3.6
2022-10-09T06:01:11.766Z,3.7
2022-10-09T06:02:28.871Z,3.6
2022-10-09T06:03:45.977Z,3.7
2022-10-09T06:05:03.082Z,3.8
2022-10-09T06:06:20.187Z,3.8
2022-10-09T06:07:36.308Z,3.8
2022-10-09T06:08:53.413Z,3.8
2022-10-09T06:10:10.518Z,3.8
2022-10-09T06:11:27.623Z,3.8
2022-10-09T06:12:44.728Z,3.9
2022-10-09T06:14:01.833Z,3.8
2022-10-09T06:15:18.939Z,3.8
2022-10-09T06:16:36.043Z,3.8
2022-10-09T06:17:53.148Z,3.8
2022-10-09T06:19:10.253Z,3.8
2022-10-09T06:20:27.359Z,3.9
2022-10-09T06:21:44.464Z,3.8
2022-10-09T06:23:01.569Z,3.9
2022-10-09T06:24:17.690Z,3.9
2022-10-09T06:25:34.795Z,3.9
2022-10-09T06:26:51.900Z,4
2022-10-09T06:28:09.005Z,4
2022-10-09T06:29:26.110Z,4
2022-10-09T06:30:43.215Z,4.1
2022-10-09T06:32:00.320Z,4.1
2022-10-09T06:33:17.425Z,4.2
2022-10-09T06:34:34.530Z,4.2
2022-10-09T06:35:51.635Z,4.2
2022-10-09T06:37:08.741Z,4.2
2022-10-09T06:38:25.846Z,4.2
2022-10-09T06:39:42.951Z,4.3
2022-10-09T06:40:59.072Z,4.4
2022-10-09T06:42:16.177Z,4.5
2022-10-09T06:43:33.282Z,4.4
2022-10-09T06:44:50.387Z,4.4
2022-10-09T06:46:07.491Z,4.4
2022-10-09T06:47:24.596Z,4.4
2022-10-09T06:48:41.701Z,4.6
2022-10-09T06:49:58.806Z,4.6
2022-10-09T06:51:15.911Z,4.7
2022-10-09T06:52:33.016Z,4.7
2022-10-09T06:53:50.121Z,4.6
2022-10-09T06:55:07.225Z,4.6
2022-10-09T06:56:24.330Z,4.6
2022-10-09T06:57:40.451Z,4.5
2022-10-09T06:58:57.556Z,4.6
2022-10-09T07:00:14.661Z,4.7
2022-10-09T07:01:31.766Z,4.7
2022-10-09T07:02:48.870Z,4.7
2022-10-09T07:04:05.975Z,4.8
2022-10-09T07:05:23.080Z,4.8
2022-10-09T07:06:40.185Z,4.8
2022-10-09T07:07:57.289Z,4.8
2022-10-09T07:09:14.395Z,4.8
2022-10-09T07:10:31.500Z,4.9
2022-10-09T07:11:48.605Z,4.9
2022-10-09T07:13:05.710Z,5
2022-10-09T07:14:21.830Z,5.1
2022-10-09T07:15:38.935Z,5.1
2022-10-09T07:16:56.040Z,5.2
2022-10-09T07:18:13.144Z,5.3
2022-10-09T07:19:30.249Z,5.4
2022-10-09T07:20:47.354Z,5.4
2022-10-09T07:22:04.459Z,5.4
2022-10-09T07:23:21.564Z,5.5
2022-10-09T07:24:38.668Z,5.5
2022-10-09T07:25:55.773Z,5.5
2022-10-09T07:27:12.878Z,5.5
2022-10-09T07:28:29.982Z,5.5
2022-10-09T07:29:47.087Z,5.6
2022-10-09T07:31:03.208Z,5.6
2022-10-09T07:32:20.313Z,5.6
2022-10-09T07:33:37.418Z,5.7
2022-10-09T07:34:54.522Z,5.8
2022-10-09T07:36:11.627Z,5.8
2022-10-09T07:37:28.732Z,5.8
2022-10-09T07:38:45.836Z,5.9
2022-10-09T07:40:02.941Z,6
2022-10-09T07:41:20.046Z,6.2
2022-10-09T07:42:37.150Z,6.2
2022-10-09T07:43:54.256Z,6.3
2022-10-09T07:45:11.360Z,6.5
2022-10-09T07:46:28.465Z,6.5
2022-10-09T07:47:44.586Z,6.7
2022-10-09T07:49:01.691Z,6.7
2022-10-09T07:50:18.796Z,6.9
2022-10-09T07:51:35.900Z,6.7
2022-10-09T07:52:53.005Z,6.5
2022-10-09T07:54:10.109Z,6.5
2022-10-09T07:55:27.214Z,6.7
2022-10-09T07:56:44.319Z,6.9
2022-10-09T07:58:01.423Z,7
2022-10-09T07:59:18.527Z,7.1
2022-10-09T08:00:35.632Z,7.3
2022-10-09T08:01:52.736Z,7.4
2022-10-09T08:03:09.841Z,7.5
2022-10-09T08:04:25.961Z,7.7
2022-10-09T08:05:43.066Z,7.8
2022-10-09T08:07:00.170Z,7.9
2022-10-09T08:08:17.275Z,7.9
2022-10-09T08:09:34.379Z,8
2022-10-09T08:10:51.484Z,8
2022-10-09T08:12:08.588Z,8.2
2022-10-09T08:13:25.693Z,8.3
2022-10-09T08:14:42.797Z,8.5
2022-10-09T08:15:59.902Z,8.5
2022-10-09T08:17:17.007Z,8.4
2022-10-09T08:18:34.111Z,8.5
2022-10-09T08:19:51.215Z,8.6
2022-10-09T08:21:07.336Z,8.6
2022-10-09T08:22:24.440Z,8.8
2022-10-09T08:23:41.544Z,9
2022-10-09T08:24:58.649Z,9.2
2022-10-09T08:26:15.753Z,9.4
2022-10-09T08:27:32.858Z,9.6
2022-10-09T08:28:49.963Z,9.5
2022-10-09T08:30:07.067Z,9.4
2022-10-09T08:31:24.171Z,9.6
2022-10-09T08:32:41.276Z,9.7
2022-10-09T08:33:58.380Z,10
2022-10-09T08:35:15.484Z,10.2
2022-10-09T08:36:32.588Z,10.5
2022-10-09T08:37:48.709Z,10.7
2022-10-09T08:39:05.813Z,10.7
2022-10-09T08:40:22.917Z,10.7
2022-10-09T08:41:40.021Z,10.7
2022-10-09T08:42:57.126Z,10.6
2022-10-09T08:44:14.230Z,10.3
2022-10-09T08:45:30.350Z,10.3
2022-10-09T08:46:47.455Z,10.4
2022-10-09T08:48:04.559Z,10.6
2022-10-09T08:49:21.664Z,10.8
2022-10-09T08:50:38.768Z,10.9
2022-10-09T08:51:55.873Z,11.1
2022-10-09T08:53:12.977Z,11.1
2022-10-09T08:54:30.081Z,11
2022-10-09T08:55:47.185Z,11.3
2022-10-09T08:57:04.288Z,11.5
2022-10-09T08:58:21.392Z,11.4
2022-10-09T08:59:38.496Z,11.4
2022-10-09T09:00:55.600Z,11.5
2022-10-09T09:02:11.720Z,11.7
2022-10-09T09:03:28.825Z,11.9
2022-10-09T09:04:45.928Z,12
2022-10-09T09:06:03.033Z,12.1
2022-10-09T09:07:20.137Z,12.1
2022-10-09T09:08:37.241Z,12.2
2022-10-09T09:09:54.345Z,12.5
2022-10-09T09:11:11.449Z,12.9
2022-10-09T09:12:28.553Z,12.7
2022-10-09T09:13:45.658Z,12.6
2022-10-09T09:15:02.762Z,12.6
2022-10-09T09:16:19.867Z,12.9
2022-10-09T09:17:36.971Z,13.2
2022-10-09T09:18:53.092Z,13.8
2022-10-09T09:20:10.196Z,14.1
2022-10-09T09:21:27.300Z,14.2
2022-10-09T09:22:44.404Z,14.6
2022-10-09T09:24:01.508Z,15
2022-10-09T09:25:18.612Z,15.4
2022-10-09T09:26:35.716Z,15.9
2022-10-09T09:27:52.820Z,16.3
2022-10-09T09:29:09.924Z,16.5
2022-10-09T09:30:27.028Z,16.7
2022-10-09T09:31:44.132Z,16.6
2022-10-09T09:33:01.235Z,16.4
2022-10-09T09:34:18.339Z,16.7
2022-10-09T09:35:34.459Z,16.8
2022-10-09T09:36:51.564Z,16.9
2022-10-09T09:38:08.668Z,17.1
2022-10-09T09:39:25.772Z,17
2022-10-09T09:40:42.876Z,17.1
2022-10-09T09:41:59.979Z,17.1
2022-10-09T09:43:17.083Z,17.2
2022-10-09T09:44:34.187Z,17.2
2022-10-09T09:45:51.291Z,17.2
2022-10-09T09:47:08.396Z,17.3
2022-10-09T09:48:25.500Z,17.5
2022-10-09T09:49:42.603Z,17.6
2022-10-09T09:50:59.707Z,17.5
2022-10-09T09:52:15.828Z,17.4
2022-10-09T09:53:32.932Z,17.4
2022-10-09T09:54:50.036Z,17.6
2022-10-09T09:56:07.139Z,17.7
2022-10-09T09:57:24.243Z,17.4
2022-10-09T09:58:41.348Z,17.4
2022-10-09T09:59:58.452Z,17.4
2022-10-09T10:01:15.556Z,17.3
2022-10-09T10:02:32.660Z,17.1
2022-10-09T10:03:49.764Z,17
2022-10-09T10:05:06.868Z,16.9
2022-10-09T10:06:23.972Z,16.9
2022-10-09T10:07:41.076Z,17.1
2022-10-09T10:08:57.196Z,17.3
2022-10-09T10:10:14.300Z,17.3
2022-10-09T10:11:31.404Z,17
2022-10-09T10:12:48.508Z,16.8
2022-10-09T10:14:05.612Z,16.9
2022-10-09T10:15:22.716Z,17
2022-10-09T10:16:39.820Z,17
2022-10-09T10:17:56.924Z,17
2022-10-09T10:19:14.027Z,17
2022-10-09T10:20:31.132Z,16.9
2022-10-09T10:21:48.235Z,16.6
2022-10-09T10:23:05.339Z,16.6
2022-10-09T10:24:22.443Z,16.4
2022-10-09T10:25:38.563Z,16.3
2022-10-09T10:26:55.667Z,16.4
2022-10-09T10:28:12.771Z,16.5
2022-10-09T10:29:29.875Z,16.4
2022-10-09T10:30:46.979Z,16.1
2022-10-09T10:32:04.084Z,16
2022-10-09T10:33:21.188Z,15.9
2022-10-09T10:34:38.292Z,15.9
2022-10-09T10:35:55.396Z,15.8
2022-10-09T10:37:12.500Z,15.9
2022-10-09T10:38:29.604Z,15.9
2022-10-09T10:39:46.709Z,15.9
2022-10-09T10:41:03.813Z,15.9
2022-10-09T10:42:19.933Z,15.8
2022-10-09T10:43:37.038Z,15.7
2022-10-09T10:44:54.142Z,15.6
2022-10-09T10:46:11.246Z,15.3
2022-10-09T10:47:28.350Z,15.3
2022-10-09T10:48:45.454Z,15.4
2022-10-09T10:50:02.558Z,15.5
2022-10-09T10:51:19.662Z,15.5
2022-10-09T10:52:36.766Z,15.4
2022-10-09T10:53:53.870Z,15.5
2022-10-09T10:55:10.974Z,15.5
2022-10-09T10:56:28.078Z,15.5
2022-10-09T10:57:45.182Z,15.3
2022-10-09T10:59:01.302Z,15.3
2022-10-09T11:00:18.405Z,15.4
2022-10-09T11:01:35.509Z,15.4
2022-10-09T11:02:52.613Z,15.1
2022-10-09T11:04:09.717Z,15
2022-10-09T11:05:26.821Z,15
2022-10-09T11:06:43.926Z,15.1
2022-10-09T11:08:01.030Z,15.1
2022-10-09T11:09:18.134Z,14.9
2022-10-09T11:10:35.238Z,15
2022-10-09T11:11:52.342Z,15
2022-10-09T11:13:09.446Z,15
2022-10-09T11:14:26.550Z,15.2
2022-10-09T11:15:42.671Z,15.2
2022-10-09T11:16:59.775Z,15.1
2022-10-09T11:18:16.879Z,15.2
2022-10-09T11:19:33.984Z,15.2
2022-10-09T11:20:51.088Z,15.2
2022-10-09T11:22:08.192Z,15.2
2022-10-09T11:23:25.297Z,15.1
2022-10-09T11:24:42.401Z,15.1
2022-10-09T11:25:59.506Z,15
2022-10-09T11:27:16.610Z,15.1
2022-10-09T11:28:33.715Z,15.1
2022-10-09T11:29:50.819Z,15.2
2022-10-09T11:31:07.923Z,15.1
2022-10-09T11:32:24.044Z,15.1
2022-10-09T11:33:41.148Z,15.1
2022-10-09T11:34:58.252Z,15
2022-10-09T11:36:15.357Z,15.1
2022-10-09T11:37:32.461Z,15.2
2022-10-09T11:38:49.566Z,15.3
2022-10-09T11:40:06.670Z,15.4
2022-10-09T11:41:23.775Z,15.3
2022-10-09T11:42:40.879Z,15.3
2022-10-09T11:43:57.983Z,15.3
2022-10-09T11:45:15.088Z,15.3
2022-10-09T11:46:32.192Z,15.4
2022-10-09T11:47:49.297Z,15.5
2022-10-09T11:49:05.417Z,15.7
2022-10-09T11:50:22.522Z,15.7
2022-10-09T11:51:39.626Z,15.6
2022-10-09T11:52:56.730Z,15.6
2022-10-09T11:54:13.834Z,15.6
2022-10-09T11:55:30.938Z,15.6
2022-10-09T11:56:48.042Z,15.7
2022-10-09T11:58:05.146Z,15.8
2022-10-09T11:59:22.250Z,16
2022-10-09T12:00:39.355Z,16.1
2022-10-09T12:01:56.459Z,16.3
2022-10-09T12:03:13.563Z,16.3
2022-10-09T12:04:30.667Z,16.4
2022-10-09T12:05:46.788Z,16.5
2022-10-09T12:07:03.892Z,16.5
2022-10-09T12:08:20.995Z,16.4
2022-10-09T12:09:38.099Z,16.3
2022-10-09T12:10:55.203Z,16.4
2022-10-09T12:12:12.307Z,16.5
2022-10-09T12:13:29.411Z,16.4
2022-10-09T12:14:46.515Z,16.5
2022-10-09T12:16:03.619Z,16.6
2022-10-09T12:17:20.723Z,16.7
2022-10-09T12:18:37.827Z,16.8
2022-10-09T12:19:54.931Z,16.9
2022-10-09T12:21:12.034Z,17
2022-10-09T12:22:28.154Z,17
2022-10-09T12:23:45.259Z,16.9
2022-10-09T12:25:02.364Z,17
2022-10-09T12:26:19.468Z,17
2022-10-09T12:27:36.572Z,17
2022-10-09T12:28:53.676Z,16.9
2022-10-09T12:30:10.779Z,16.9
2022-10-09T12:31:27.883Z,16.9
2022-10-09T12:32:44.987Z,16.8
2022-10-09T12:34:02.091Z,16.7
2022-10-09T12:35:19.195Z,16.7
2022-10-09T12:36:36.299Z,16.7
2022-10-09T12:37:53.403Z,16.9
2022-10-09T12:39:09.523Z,16.9
2022-10-09T12:40:26.627Z,17
2022-10-09T12:41:43.731Z,17.1
2022-10-09T12:43:00.834Z,17.1
2022-10-09T12:44:17.938Z,17.2
2022-10-09T12:45:35.042Z,17.3
2022-10-09T12:46:52.146Z,17.2
2022-10-09T12:48:09.250Z,17.2
2022-10-09T12:49:26.354Z,17.2
2022-10-09T12:50:43.458Z,17.1
2022-10-09T12:52:00.562Z,17.1
2022-10-09T12:53:17.666Z,17.1
2022-10-09T12:54:34.769Z,17
2022-10-09T12:55:50.889Z,17
2022-10-09T12:57:07.993Z,17.1
2022-10-09T12:58:25.097Z,17.1
2022-10-09T12:59:42.201Z,17.1
2022-10-09T13:00:59.305Z,17.2
2022-10-09T13:02:16.409Z,17.2
2022-10-09T13:03:32.529Z,17.2
2022-10-09T13:04:49.633Z,17.2
2022-10-09T13:06:06.737Z,17.2
2022-10-09T13:07:23.841Z,17.3
2022-10-09T13:08:40.945Z,17.1
2022-10-09T13:09:58.049Z,17
2022-10-09T13:11:15.152Z,16.9
2022-10-09T13:12:32.256Z,17
2022-10-09T13:13:49.360Z,17
2022-10-09T13:15:06.464Z,17
2022-10-09T13:16:23.568Z,16.9
2022-10-09T13:17:40.672Z,16.9
2022-10-09T13:18:57.776Z,17
2022-10-09T13:20:13.896Z,17
2022-10-09T13:21:31.000Z,16.8
2022-10-09T13:22:48.104Z,16.7
2022-10-09T13:24:05.208Z,16.9
2022-10-09T13:25:22.312Z,16.9
2022-10-09T13:26:39.415Z,16.9
2022-10-09T13:27:56.519Z,16.9
2022-10-09T13:29:13.623Z,16.9
2022-10-09T13:30:30.727Z,16.8
2022-10-09T13:31:47.831Z,16.8
2022-10-09T13:33:04.935Z,16.9
2022-10-09T13:34:22.039Z,16.7
2022-10-09T13:35:39.141Z,16.7
2022-10-09T13:36:55.261Z,16.7
2022-10-09T13:38:12.365Z,16.8
2022-10-09T13:39:29.468Z,17
2022-10-09T13:40:46.572Z,17.1
2022-10-09T13:42:03.676Z,17.1
2022-10-09T13:43:20.780Z,17.1
2022-10-09T13:44:37.884Z,17.1
2022-10-09T13:45:54.988Z,17.1
2022-10-09T13:47:12.092Z,17.2
2022-10-09T13:48:29.195Z,17.2
2022-10-09T13:49:46.299Z,17.2
2022-10-09T13:51:03.403Z,17.2
2022-10-09T13:52:20.508Z,17.2
2022-10-09T13:53:36.628Z,17.1
2022-10-09T13:54:53.732Z,16.9
2022-10-09T13:56:10.836Z,16.9
2022-10-09T13:57:27.940Z,16.8
2022-10-09T13:58:45.044Z,16.9
2022-10-09T14:00:02.148Z,17
2022-10-09T14:01:19.253Z,17.1
2022-10-09T14:02:36.357Z,17
2022-10-09T14:03:53.461Z,17
2022-10-09T14:05:10.565Z,17
2022-10-09T14:06:27.669Z,16.9
2022-10-09T14:07:44.773Z,16.9
2022-10-09T14:09:01.877Z,16.9
2022-10-09T14:10:17.997Z,16.8
2022-10-09T14:11:35.101Z,16.7
2022-10-09T14:12:52.204Z,16.7
2022-10-09T14:14:09.308Z,16.7
2022-10-09T14:15:26.412Z,16.8
2022-10-09T14:16:43.516Z,16.9
2022-10-09T14:18:00.621Z,17
2022-10-09T14:19:17.725Z,17.1
2022-10-09T14:20:34.829Z,17
2022-10-09T14:21:51.933Z,16.9
2022-10-09T14:23:09.036Z,16.9
2022-10-09T14:24:26.141Z,16.9
2022-10-09T14:25:43.245Z,16.8
2022-10-09T14:26:59.365Z,16.8
2022-10-09T14:28:16.469Z,16.9
2022-10-09T14:29:33.573Z,16.9
2022-10-09T14:30:50.676Z,17
2022-10-09T14:32:07.780Z,16.9
2022-10-09T14:33:24.884Z,16.7
2022-10-09T14:34:41.988Z,16.6
2022-10-09T14:35:59.092Z,16.6
2022-10-09T14:37:16.196Z,16.5
2022-10-09T14:38:33.300Z,16.6
2022-10-09T14:39:50.404Z,16.6
2022-10-09T14:41:07.509Z,16.7
2022-10-09T14:42:24.613Z,16.8
2022-10-09T14:43:40.733Z,16.7
2022-10-09T14:44:57.836Z,16.6
2022-10-09T14:46:14.940Z,16.6
2022-10-09T14:47:32.044Z,16.6
2022-10-09T14:48:49.148Z,16.6
2022-10-09T14:50:06.252Z,16.6
2022-10-09T14:51:23.356Z,16.5
2022-10-09T14:52:40.461Z,16.6
2022-10-09T14:53:57.565Z,16.6
2022-10-09T14:55:14.669Z,16.7
2022-10-09T14:56:31.773Z,16.7
2022-10-09T14:57:48.877Z,16.7
2022-10-09T14:59:05.981Z,16.6
2022-10-09T15:00:22.101Z,16.6
2022-10-09T15:01:39.205Z,16.6
2022-10-09T15:02:56.309Z,16.7
2022-10-09T15:04:13.413Z,16.7
2022-10-09T15:05:30.516Z,16.8
2022-10-09T15:06:47.621Z,16.8
2022-10-09T15:08:04.725Z,16.8
2022-10-09T15:09:21.829Z,16.9
2022-10-09T15:10:38.933Z,16.7
2022-10-09T15:11:56.037Z,16.7
2022-10-09T15:13:13.141Z,16.6
2022-10-09T15:14:30.245Z,16.5
2022-10-09T15:15:47.349Z,16.6
2022-10-09T15:17:03.470Z,16.5
2022-10-09T15:18:20.574Z,16.5
2022-10-09T15:19:37.678Z,16.5
2022-10-09T15:20:54.782Z,16.5
2022-10-09T15:22:11.886Z,16.5
2022-10-09T15:23:28.990Z,16.5
2022-10-09T15:24:46.093Z,16.5
2022-10-09T15:26:03.197Z,16.5
2022-10-09T15:27:20.301Z,16.5
2022-10-09T15:28:37.405Z,16.5
2022-10-09T15:29:54.509Z,16.5
2022-10-09T15:31:11.613Z,16.5
2022-10-09T15:32:28.717Z,16.4
2022-10-09T15:33:44.835Z,16.4
2022-10-09T15:35:01.939Z,16.3
2022-10-09T15:36:19.043Z,16.3
2022-10-09T15:37:36.146Z,16.3
2022-10-09T15:38:53.250Z,16.3
2022-10-09T15:40:10.354Z,16.2
2022-10-09T15:41:27.458Z,16.2
2022-10-09T15:42:44.562Z,16.2
2022-10-09T15:44:01.666Z,16.2
2022-10-09T15:45:18.770Z,16.2
2022-10-09T15:46:35.875Z,16.2
2022-10-09T15:47:52.979Z,16.2
2022-10-09T15:49:10.083Z,16.2
2022-10-09T15:50:26.204Z,16.2
2022-10-09T15:51:43.308Z,16.2
2022-10-09T15:53:00.412Z,16.1
2022-10-09T15:54:17.516Z,16.1
2022-10-09T15:55:34.621Z,16.1
2022-10-09T15:56:51.725Z,16.1
2022-10-09T15:58:08.829Z,16.1
2022-10-09T15:59:25.933Z,16.1
2022-10-09T16:00:43.037Z,16.1
2022-10-09T16:02:00.142Z,16.1
2022-10-09T16:03:17.246Z,16.1
2022-10-09T16:04:34.350Z,16.1
2022-10-09T16:05:51.455Z,16
2022-10-09T16:07:07.575Z,16
2022-10-09T16:08:24.679Z,16
2022-10-09T16:09:41.784Z,15.9
2022-10-09T16:10:58.888Z,15.9
2022-10-09T16:12:15.992Z,15.8
2022-10-09T16:13:33.095Z,15.7
2022-10-09T16:14:50.199Z,15.6
2022-10-09T16:16:07.304Z,15.6
2022-10-09T16:17:24.409Z,15.6
2022-10-09T16:18:41.513Z,15.5
2022-10-09T16:19:58.617Z,15.5
2022-10-09T16:21:15.722Z,15.5
2022-10-09T16:22:32.826Z,15.4
2022-10-09T16:23:48.947Z,15.3
2022-10-09T16:25:06.051Z,15.3
2022-10-09T16:26:23.155Z,15.2
2022-10-09T16:27:40.259Z,15.2
2022-10-09T16:28:57.364Z,15.2
2022-10-09T16:30:14.468Z,15.2
2022-10-09T16:31:31.572Z,15.1
2022-10-09T16:32:48.675Z,15.1
2022-10-09T16:34:05.779Z,15.1
2022-10-09T16:35:22.883Z,15
2022-10-09T16:36:39.987Z,15
2022-10-09T16:37:57.092Z,15
2022-10-09T16:39:14.196Z,14.9
2022-10-09T16:40:30.316Z,14.9
2022-10-09T16:41:47.420Z,14.8
2022-10-09T16:43:04.525Z,14.7
2022-10-09T16:44:21.629Z,14.7
2022-10-09T16:45:38.733Z,14.7
2022-10-09T16:46:55.837Z,14.6
2022-10-09T16:48:12.941Z,14.6
2022-10-09T16:49:30.045Z,14.5
2022-10-09T16:50:47.150Z,14.5
2022-10-09T16:52:04.254Z,14.5
2022-10-09T16:53:21.358Z,14.4
2022-10-09T16:54:38.462Z,14.3
2022-10-09T16:55:55.566Z,14.3
2022-10-09T16:57:11.686Z,14.2
2022-10-09T16:58:28.791Z,14.1
2022-10-09T16:59:45.895Z,14
2022-10-09T17:01:02.999Z,14
2022-10-09T17:02:20.103Z,13.9
2022-10-09T17:03:37.207Z,13.8
2022-10-09T17:04:54.311Z,13.8
2022-10-09T17:06:11.416Z,13.7
2022-10-09T17:07:28.520Z,13.6
2022-10-09T17:08:45.624Z,13.5
2022-10-09T17:10:02.728Z,13.5
2022-10-09T17:11:19.832Z,13.4
2022-10-09T17:12:36.937Z,13.4
2022-10-09T17:13:53.057Z,13.3
2022-10-09T17:15:10.161Z,13.3
2022-10-09T17:16:27.265Z,13.2
2022-10-09T17:17:44.370Z,13.2
2022-10-09T17:19:01.474Z,13.1
2022-10-09T17:20:18.578Z,13.1
2022-10-09T17:21:34.698Z,13
2022-10-09T17:22:51.802Z,12.9
2022-10-09T17:24:08.906Z,12.7
2022-10-09T17:25:26.011Z,12.6
2022-10-09T17:26:43.115Z,12.5
2022-10-09T17:28:00.220Z,12.3
2022-10-09T17:29:17.324Z,12.2
2022-10-09T17:30:34.428Z,12